Aviation Digital Data Service (ADDS)

Output produced by METARs form (1826 UTC 16 August 2018)
found at http://www.aviationweather.gov/adds/metars/
 
EKYT 161820Z AUTO 20012KT 9999NDV FEW022/// 19/16 Q1010
TAF EKYT 161721Z 1618/1718 19012KT 9999 BKN030 
     TEMPO 1618/1706 4000 -RA BKN008 
     BECMG 1706/1709 25010KT
       
EKAH 161820Z AUTO 22004KT 150V280 9999NDV BKN045/// 21/15 Q1013
TAF EKAH 161658Z 1618/1718 20010KT 9999 BKN040 
     TEMPO 1623/1702 BKN012 
     TEMPO 1702/1710 4000 RA BR BKN008 SCT040CB 
     BECMG 1712/1715 26010KT
       
EKBI 161820Z AUTO 19008KT 9999NDV BKN014/// BKN035/// 18/16 Q1012
TAF AMD EKBI 161805Z 1618/1718 20010KT 9999 BKN025 
     TEMPO 1618/1620 BKN014 
     TEMPO 1620/1709 4000 RADZ BR BKN008 SCT040CB 
     BECMG 1709/1711 27010KT
       
EKRN 161820Z AUTO 11009KT 9999NDV NCD 21/16 Q1016
TAF EKRN 161424Z 1615/1622 14010KT 9999 FEW040
       
EKEB 161820Z AUTO 21015KT 9999NDV BKN023/// 19/16 Q1012
TAF EKEB 161722Z 1618/1622 20018KT 9999 BKN015 
     TEMPO 1618/1622 4000 RADZ BR BKN009 
     BECMG 1620/1622 20007KT
       
EKKA 161820Z AUTO 18010KT 9999NDV BKN019/// 19/17 Q1011
TAF EKKA 161721Z 1618/1718 19012KT 9999 BKN030 
     TEMPO 1618/1706 4000 -RA BKN008 
     BECMG 1706/1709 27008KT
       
EKCH 161820Z 15008KT CAVOK 22/18 Q1014 NOSIG
TAF EKCH 161658Z 1618/1718 15010KT 9999 FEW040 
     BECMG 1622/1624 VRB02KT 
     BECMG 1709/1712 29012KT 
     TEMPO 1712/1718 3000 SHRA BKN012 SCT040CB 
     PROB40 
     TEMPO 1712/1718 TSRA
       
EKVD 161820Z AUTO 22010KT //// ///////// 20/16 Q1013
EKAH 161820Z AUTO 22004KT 150V280 9999NDV BKN045/// 21/15 Q1013
TAF EKAH 161658Z 1618/1718 20010KT 9999 BKN040 
     TEMPO 1623/1702 BKN012 
     TEMPO 1702/1710 4000 RA BR BKN008 SCT040CB 
     BECMG 1712/1715 26010KT
       
EKBI 161820Z AUTO 19008KT 9999NDV BKN014/// BKN035/// 18/16 Q1012
TAF AMD EKBI 161805Z 1618/1718 20010KT 9999 BKN025 
     TEMPO 1618/1620 BKN014 
     TEMPO 1620/1709 4000 RADZ BR BKN008 SCT040CB 
     BECMG 1709/1711 27010KT
       
EKCH 161820Z 15008KT CAVOK 22/18 Q1014 NOSIG
TAF EKCH 161658Z 1618/1718 15010KT 9999 FEW040 
     BECMG 1622/1624 VRB02KT 
     BECMG 1709/1712 29012KT 
     TEMPO 1712/1718 3000 SHRA BKN012 SCT040CB 
     PROB40 
     TEMPO 1712/1718 TSRA
       
EKEB 161820Z AUTO 21015KT 9999NDV BKN023/// 19/16 Q1012
TAF EKEB 161722Z 1618/1622 20018KT 9999 BKN015 
     TEMPO 1618/1622 4000 RADZ BR BKN009 
     BECMG 1620/1622 20007KT
       
TAF EKGF 161753Z 1618/1622 22015KT 9999 BKN020 
     TEMPO 1618/1622 4000 SHRA BKN012 SCT018CB
       
EKKA 161820Z AUTO 18010KT 9999NDV BKN019/// 19/17 Q1011
TAF EKKA 161721Z 1618/1718 19012KT 9999 BKN030 
     TEMPO 1618/1706 4000 -RA BKN008 
     BECMG 1706/1709 27008KT
       
EKOD 161350Z 22014KT 180V250 9999 SCT038 23/15 Q1013
EKRK 161820Z AUTO 14008KT 9999NDV NCD 20/18 Q1014
TAF EKRK 161722Z 1618/1703 14010KT 9999 FEW040 
     BECMG 1620/1623 VRB02KT
       
EKRN 161820Z AUTO 11009KT 9999NDV NCD 21/16 Q1016
TAF EKRN 161424Z 1615/1622 14010KT 9999 FEW040
       
EKSB 161820Z 23002KT CAVOK 22/15 Q1013
TAF EKSB 161751Z 1618/1622 24008KT 9999 BKN040 
     TEMPO 1621/1622 BKN012
       
EKSP 161820Z 22007KT 9999 FEW038 BKN052 20/16 Q1013
TAF EKSP 161721Z 1618/1718 20015KT 9999 BKN030 
     BECMG 1618/1620 20006KT 
     TEMPO 1619/1709 4000 -RA BKN008 
     BECMG 1708/1710 28012KT
       
EKVD 161820Z AUTO 22010KT //// ///////// 20/16 Q1013
EKVG 161820Z AUTO 23009KT 9999NDV -SHRA BKN003/// 11/10 Q0994
TAF EKVG 161424Z 1615/1620 20012KT 9999 SCT005 BKN025 
     BECMG 1615/1617 26010KT SHRA BKN003 BKN025CB 
     TEMPO 1617/1620 2000 BR SCT005
       
EKVJ 161350Z 20016KT 9000 -SHRA FEW020 BKN030 19/18 Q1011
EKYT 161820Z AUTO 20012KT 9999NDV FEW022/// 19/16 Q1010
TAF EKYT 161721Z 1618/1718 19012KT 9999 BKN030 
     TEMPO 1618/1706 4000 -RA BKN008 
     BECMG 1706/1709 25010KT
       
EKOD 161350Z 22014KT 180V250 9999 SCT038 23/15 Q1013
EKRK 161820Z AUTO 14008KT 9999NDV NCD 20/18 Q1014
TAF EKRK 161722Z 1618/1703 14010KT 9999 FEW040 
     BECMG 1620/1623 VRB02KT
       
EKSP 161820Z 22007KT 9999 FEW038 BKN052 20/16 Q1013
TAF EKSP 161721Z 1618/1718 20015KT 9999 BKN030 
     BECMG 1618/1620 20006KT 
     TEMPO 1619/1709 4000 -RA BKN008 
     BECMG 1708/1710 28012KT
       
EKSB 161820Z 23002KT CAVOK 22/15 Q1013
TAF EKSB 161751Z 1618/1622 24008KT 9999 BKN040 
     TEMPO 1621/1622 BKN012
       
EKVJ 161350Z 20016KT 9000 -SHRA FEW020 BKN030 19/18 Q1011